Time;durP1;ratioP1;P1;durP2;ratioP2;P2;SDS_P1;SDS_P2;PMS_P1;PMS_P2;Temp;Humidity;BMP_temperature;BMP_pressure;BME280_temperature;BME280_humidity;BME280_pressure;Samples;Min_cycle;Max_cycle;Signal;HPM_P1;HPM_P2
2023/07/08 00:02:36;;;;;;;0.70;0.50;;;22.50;58.80;;;;;;8327834;28;20037;-73
2023/07/08 00:06:36;;;;;;;;;;;22.50;58.80;;;;;;8328014;28;20037;-73
2023/07/08 00:10:37;;;;;;;0.60;0.57;;;22.50;58.70;;;;;;8327799;28;19916;-73
2023/07/08 00:14:38;;;;;;;0.60;0.50;;;22.50;58.70;;;;;;8327166;28;20104;-73
2023/07/08 00:18:39;;;;;;;0.30;0.30;;;22.50;58.80;;;;;;8326836;28;20538;-73
2023/07/08 00:22:41;;;;;;;0.43;0.43;;;22.50;58.70;;;;;;8327680;28;20449;-73
2023/07/08 00:26:41;;;;;;;0.55;0.47;;;22.60;58.80;;;;;;8310120;28;20033;-73
2023/07/08 00:30:42;;;;;;;0.47;0.47;;;22.60;58.80;;;;;;8309864;28;20026;-73
2023/07/08 00:34:43;;;;;;;0.40;0.40;;;22.50;58.70;;;;;;8309960;28;20037;-73
2023/07/08 00:38:45;;;;;;;0.40;0.40;;;22.60;58.70;;;;;;8295269;28;20418;-73
2023/07/08 00:42:46;;;;;;;0.57;0.50;;;22.60;58.80;;;;;;8293653;28;20038;-73
2023/07/08 00:46:54;;;;;;;0.75;0.60;;;22.50;58.70;;;;;;8329992;28;20042;-73
2023/07/08 00:50:54;;;;;;;0.82;0.55;;;22.50;58.70;;;;;;8333721;28;20086;-73
2023/07/08 00:55:04;;;;;;;0.40;0.40;;;22.60;58.70;;;;;;8333656;28;20475;-73
2023/07/08 00:59:11;;;;;;;0.77;0.50;;;22.60;58.80;;;;;;8333473;28;20049;-73
2023/07/08 01:03:11;;;;;;;0.38;0.38;;;22.60;58.70;;;;;;8333427;28;20029;-73
2023/07/08 01:07:12;;;;;;;0.45;0.45;;;22.60;58.70;;;;;;8298809;28;20137;-73
2023/07/08 01:11:13;;;;;;;;;;;22.60;58.70;;;;;;8316001;28;20368;-73
2023/07/08 01:15:14;;;;;;;0.70;0.57;;;22.60;58.70;;;;;;8332893;28;20071;-73
2023/07/08 01:19:19;;;;;;;0.50;0.50;;;22.60;58.70;;;;;;8333288;28;20038;-73
2023/07/08 01:23:19;;;;;;;0.45;0.43;;;22.60;58.80;;;;;;8332751;28;20069;-73
2023/07/08 01:27:21;;;;;;;0.30;0.30;;;22.60;58.70;;;;;;8314859;28;20482;-73
2023/07/08 01:31:22;;;;;;;0.60;0.45;;;22.50;58.70;;;;;;8332518;28;20574;-73
2023/07/08 01:35:23;;;;;;;0.43;0.40;;;22.60;59.30;;;;;;8332298;28;20510;-73
2023/07/08 01:39:27;;;;;;;0.68;0.52;;;22.50;58.80;;;;;;8332305;28;20508;-73
2023/07/08 01:43:27;;;;;;;2.05;0.57;;;22.50;58.80;;;;;;8332206;28;20029;-73
2023/07/08 01:47:28;;;;;;;0.95;0.60;;;22.50;58.80;;;;;;8332063;28;20031;-73
2023/07/08 01:51:29;;;;;;;0.80;0.70;;;22.50;58.80;;;;;;8314359;28;20072;-73
2023/07/08 01:55:30;;;;;;;0.60;0.50;;;22.50;58.80;;;;;;8331792;28;20360;-73
2023/07/08 01:59:30;;;;;;;0.70;0.50;;;22.50;58.80;;;;;;8313862;28;20427;-73
2023/07/08 02:03:31;;;;;;;0.30;0.30;;;22.50;58.80;;;;;;8313799;28;20488;-73
2023/07/08 02:07:32;;;;;;;1.08;0.40;;;22.50;58.80;;;;;;8331276;28;20029;-73
2023/07/08 02:11:33;;;;;;;0.50;0.40;;;22.50;58.80;;;;;;8313729;28;20503;-73
2023/07/08 02:15:34;;;;;;;0.70;0.40;;;22.50;58.80;;;;;;8297067;28;20431;-73
2023/07/08 02:19:34;;;;;;;1.15;0.50;;;22.50;58.80;;;;;;8298186;28;20038;-73
2023/07/08 02:23:35;;;;;;;0.50;0.43;;;22.50;58.80;;;;;;8298124;28;20434;-73
2023/07/08 02:27:37;;;;;;;0.57;0.40;;;22.50;58.80;;;;;;8280511;28;20556;-73
2023/07/08 02:31:37;;;;;;;0.40;0.40;;;22.50;59.30;;;;;;8264198;28;20489;-73
2023/07/08 02:35:38;;;;;;;1.13;0.60;;;22.60;58.80;;;;;;8253771;28;20502;-73
2023/07/08 02:39:39;;;;;;;0.40;0.40;;;22.50;58.80;;;;;;8280256;28;20037;-73
2023/07/08 02:43:39;;;;;;;0.52;0.50;;;22.50;58.80;;;;;;8296355;28;20506;-73
2023/07/08 02:47:40;;;;;;;0.98;0.50;;;22.60;58.80;;;;;;8279933;28;20065;-73
2023/07/08 02:51:41;;;;;;;0.63;0.50;;;22.50;58.80;;;;;;8279886;28;20030;-73
2023/07/08 02:55:42;;;;;;;0.60;0.60;;;22.50;58.80;;;;;;8279675;28;20030;-73
2023/07/08 02:59:43;;;;;;;0.68;0.40;;;22.50;59.30;;;;;;8295854;28;20458;-73
2023/07/08 03:03:48;;;;;;;0.50;0.40;;;22.60;58.80;;;;;;8297090;28;20108;-73
2023/07/08 03:07:48;;;;;;;0.70;0.50;;;22.50;58.80;;;;;;8294448;28;20471;-73
2023/07/08 03:11:49;;;;;;;0.70;0.60;;;22.50;58.80;;;;;;8329532;28;20387;-73
2023/07/08 03:15:50;;;;;;;0.50;0.40;;;22.50;58.80;;;;;;8329213;28;20136;-73
2023/07/08 03:19:51;;;;;;;0.52;0.40;;;22.50;58.80;;;;;;8329110;28;20045;-73
2023/07/08 03:23:52;;;;;;;0.40;0.40;;;22.50;58.80;;;;;;8327865;28;20128;-73
2023/07/08 03:27:55;;;;;;;0.40;0.30;;;22.50;58.90;;;;;;8327531;28;20084;-73
2023/07/08 03:31:55;;;;;;;0.73;0.60;;;22.50;58.90;;;;;;8311577;28;20030;-73
2023/07/08 03:35:56;;;;;;;0.60;0.60;;;22.50;58.90;;;;;;8310927;28;20037;-73
2023/07/08 03:39:57;;;;;;;0.50;0.30;;;22.50;58.90;;;;;;8311162;28;20507;-73
2023/07/08 03:43:57;;;;;;;0.60;0.50;;;22.50;58.90;;;;;;8310896;28;20033;-73
2023/07/08 03:47:58;;;;;;;0.75;0.50;;;22.50;58.90;;;;;;8310831;28;20032;-73
2023/07/08 03:51:58;;;;;;;0.68;0.60;;;22.50;58.90;;;;;;8310661;28;20418;-73
2023/07/08 03:55:59;;;;;;;0.40;0.40;;;22.50;58.90;;;;;;8310682;28;20419;-73
2023/07/08 04:00:00;;;;;;;0.50;0.50;;;22.50;58.90;;;;;;8328102;28;20037;-73
2023/07/08 04:04:00;;;;;;;0.40;0.40;;;22.50;58.90;;;;;;8328089;28;20120;-73
2023/07/08 04:08:01;;;;;;;0.40;0.40;;;22.50;58.90;;;;;;8327836;28;20037;-73
2023/07/08 04:12:02;;;;;;;0.70;0.70;;;22.50;58.90;;;;;;8328012;28;20053;-73
2023/07/08 04:16:05;;;;;;;0.30;0.30;;;22.50;58.90;;;;;;8310161;28;20080;-73
2023/07/08 04:20:06;;;;;;;0.65;0.50;;;22.50;58.90;;;;;;8330806;28;20036;-73
2023/07/08 04:24:08;;;;;;;;;;;22.50;58.80;;;;;;8317554;28;20087;-73
2023/07/08 04:28:08;;;;;;;1.05;0.50;;;22.60;58.90;;;;;;8316506;28;19909;-73
2023/07/08 04:32:09;;;;;;;0.82;0.47;;;22.50;59.40;;;;;;8300458;28;20112;-73
2023/07/08 04:36:13;;;;;;;;;;;22.50;59.30;;;;;;8334356;28;20037;-73
2023/07/08 04:40:20;;;;;;;0.70;0.55;;;22.50;58.80;;;;;;8334150;28;19905;-73
2023/07/08 04:44:20;;;;;;;0.57;0.40;;;22.60;58.90;;;;;;8316248;28;20502;-73
2023/07/08 04:48:21;;;;;;;0.65;0.52;;;22.50;58.80;;;;;;8299855;28;20418;-73
2023/07/08 04:52:22;;;;;;;;;;;22.50;58.90;;;;;;8334315;28;20028;-73
2023/07/08 04:56:23;;;;;;;0.87;0.70;;;22.50;58.80;;;;;;8315632;28;19909;-73
2023/07/08 05:00:24;;;;;;;0.60;0.50;;;22.50;58.90;;;;;;8333148;28;20163;-73
2023/07/08 05:04:25;;;;;;;;;;;22.50;58.90;;;;;;8299639;28;20102;-73
2023/07/08 05:08:25;;;;;;;0.50;0.50;;;22.50;58.90;;;;;;8315712;28;19909;-73
2023/07/08 05:12:26;;;;;;;0.75;0.57;;;22.40;58.90;;;;;;8299738;28;20034;-73
2023/07/08 05:16:27;;;;;;;;;;;22.50;58.90;;;;;;8333865;28;20045;-73
2023/07/08 05:20:30;;;;;;;0.55;0.50;;;22.50;58.90;;;;;;8316091;28;19963;-73
2023/07/08 05:24:31;;;;;;;0.82;0.57;;;22.50;59.00;;;;;;8358460;28;20175;-73
2023/07/08 05:28:31;;;;;;;0.47;0.47;;;22.50;59.00;;;;;;8370245;28;20112;-72
2023/07/08 05:32:32;;;;;;;0.60;0.50;;;22.50;59.00;;;;;;8368033;28;20021;-73
2023/07/08 05:36:33;;;;;;;;;;;22.50;58.90;;;;;;8353819;28;20021;-72
2023/07/08 05:40:34;;;;;;;0.40;0.40;;;22.50;58.90;;;;;;8371498;28;19932;-73
2023/07/08 05:44:34;;;;;;;0.65;0.45;;;22.50;58.90;;;;;;8336134;28;20056;-72
2023/07/08 05:48:36;;;;;;;0.95;0.43;;;22.40;58.90;;;;;;8298173;28;20522;-73
2023/07/08 05:52:37;;;;;;;0.55;0.40;;;22.50;58.90;;;;;;8332041;28;20034;-73
2023/07/08 05:56:37;;;;;;;1.13;0.40;;;22.50;58.90;;;;;;8314146;28;20505;-73
2023/07/08 06:00:38;;;;;;;0.40;0.40;;;22.50;58.90;;;;;;8331760;28;20033;-73
2023/07/08 06:04:40;;;;;;;0.32;0.32;;;22.50;58.90;;;;;;8331698;28;20092;-73
2023/07/08 06:08:41;;;;;;;0.38;0.38;;;22.50;58.90;;;;;;8328049;28;20024;-73
2023/07/08 06:12:41;;;;;;;;;;;22.50;58.90;;;;;;8329047;28;20029;-73
2023/07/08 06:16:42;;;;;;;0.40;0.40;;;22.50;58.90;;;;;;8328034;28;20003;-73
2023/07/08 06:20:51;;;;;;;0.43;0.43;;;22.50;58.90;;;;;;8296862;28;20026;-73
2023/07/08 06:24:52;;;;;;;0.35;0.35;;;22.50;58.90;;;;;;8313261;28;20087;-73
2023/07/08 06:28:52;;;;;;;1.80;0.50;;;22.50;58.90;;;;;;8330658;28;20030;-73
2023/07/08 06:32:53;;;;;;;;;;;22.50;58.90;;;;;;8331253;28;20030;-73
2023/07/08 06:36:53;;;;;;;0.40;0.40;;;22.50;58.80;;;;;;8330418;28;19909;-73
2023/07/08 06:40:54;;;;;;;0.50;0.50;;;22.50;58.80;;;;;;8330543;28;20119;-73
2023/07/08 06:44:55;;;;;;;0.32;0.32;;;22.50;58.90;;;;;;8330350;28;20094;-73
2023/07/08 06:48:55;;;;;;;0.40;0.40;;;22.40;58.80;;;;;;8330260;28;20037;-73
2023/07/08 06:52:56;;;;;;;0.55;0.50;;;22.50;58.90;;;;;;8312381;28;20040;-73
2023/07/08 06:56:56;;;;;;;0.57;0.55;;;22.40;58.90;;;;;;8329977;28;20092;-73
2023/07/08 07:00:57;;;;;;;0.90;0.40;;;22.50;59.00;;;;;;8329425;28;20489;-73
2023/07/08 07:04:58;;;;;;;0.40;0.40;;;22.40;58.90;;;;;;8295940;28;20504;-73
2023/07/08 07:08:58;;;;;;;0.70;0.50;;;22.50;58.90;;;;;;8329792;28;20034;-73
2023/07/08 07:12:59;;;;;;;0.50;0.50;;;22.40;58.90;;;;;;8311759;28;20065;-73
2023/07/08 07:17:00;;;;;;;0.35;0.35;;;22.50;58.90;;;;;;8329351;28;20084;-73
2023/07/08 07:21:01;;;;;;;0.55;0.32;;;22.50;58.90;;;;;;8311398;28;20710;-73
2023/07/08 07:25:01;;;;;;;0.38;0.38;;;22.50;58.90;;;;;;8311468;28;20033;-73
2023/07/08 07:29:02;;;;;;;1.75;0.50;;;22.50;58.90;;;;;;8328775;28;20025;-73
2023/07/08 07:33:03;;;;;;;0.60;0.50;;;22.50;58.90;;;;;;8311227;28;20041;-73
2023/07/08 07:37:05;;;;;;;0.70;0.60;;;22.50;58.90;;;;;;8307108;28;20033;-73
2023/07/08 07:41:06;;;;;;;0.50;0.50;;;22.50;58.90;;;;;;8325862;28;20132;-73
2023/07/08 07:45:08;;;;;;;1.13;0.50;;;22.40;58.80;;;;;;8328022;28;20069;-73
2023/07/08 07:49:09;;;;;;;0.43;0.43;;;22.50;58.90;;;;;;8328561;28;20033;-73
2023/07/08 07:53:09;;;;;;;0.50;0.32;;;22.50;58.90;;;;;;8328132;28;20491;-73
2023/07/08 07:57:10;;;;;;;0.75;0.52;;;22.50;58.80;;;;;;8309693;28;20490;-73
2023/07/08 08:01:13;;;;;;;0.70;0.50;;;22.50;58.80;;;;;;8312329;28;20037;-73
2023/07/08 08:05:13;;;;;;;0.50;0.30;;;22.50;58.90;;;;;;8310750;28;20037;-73
2023/07/08 08:09:14;;;;;;;0.40;0.40;;;22.50;58.90;;;;;;8328126;28;20057;-73
2023/07/08 08:13:15;;;;;;;0.50;0.47;;;22.50;58.90;;;;;;8327917;28;20042;-73
2023/07/08 08:17:15;;;;;;;0.40;0.40;;;22.50;59.40;;;;;;8310959;28;20581;-73
2023/07/08 08:21:16;;;;;;;0.50;0.50;;;22.50;58.90;;;;;;8306163;28;20030;-73
2023/07/08 08:25:19;;;;;;;0.47;0.40;;;22.50;58.90;;;;;;8324884;28;20069;-72
2023/07/08 08:29:19;;;;;;;0.60;0.50;;;22.50;58.90;;;;;;8327022;28;20040;-73
2023/07/08 08:33:20;;;;;;;0.60;0.50;;;22.40;58.90;;;;;;8327694;28;20030;-73
2023/07/08 08:37:21;;;;;;;0.52;0.50;;;22.40;58.90;;;;;;8327540;28;20076;-73
2023/07/08 08:41:32;;;;;;;0.32;0.30;;;22.40;58.90;;;;;;8327804;28;20399;-73
2023/07/08 08:45:57;;;;;;;0.45;0.40;;;22.50;59.00;;;;;;8327337;28;20029;-73
2023/07/08 08:50:13;;;;;;;0.45;0.40;;;22.40;59.00;;;;;;8326709;28;20107;-73
2023/07/08 08:54:14;;;;;;;0.38;0.32;;;22.50;59.00;;;;;;8327475;28;20033;-73
2023/07/08 08:58:31;;;;;;;0.38;0.38;;;22.40;58.90;;;;;;8327362;28;20310;-73
2023/07/08 09:02:40;;;;;;;0.60;0.60;;;22.40;58.90;;;;;;8327448;28;20089;-73
2023/07/08 09:06:41;;;;;;;0.50;0.50;;;22.40;58.90;;;;;;8329010;28;20025;-73
2023/07/08 09:10:59;;;;;;;0.55;0.50;;;22.50;59.00;;;;;;8333385;28;20080;-73
2023/07/08 09:15:10;;;;;;;0.40;0.40;;;22.40;58.90;;;;;;8333069;28;20124;-73
2023/07/08 09:19:13;;;;;;;;;;;22.50;59.00;;;;;;8315750;28;20032;-73
2023/07/08 09:23:29;;;;;;;0.43;0.40;;;22.40;58.90;;;;;;8333001;28;19979;-73
2023/07/08 09:27:29;;;;;;;0.35;0.35;;;22.50;59.00;;;;;;8332608;28;20441;-73
2023/07/08 09:31:32;;;;;;;0.40;0.40;;;22.50;59.00;;;;;;8332678;28;20034;-73
2023/07/08 09:35:42;;;;;;;0.40;0.38;;;22.50;58.90;;;;;;8314633;28;20033;-73
2023/07/08 09:39:43;;;;;;;0.57;0.57;;;22.50;59.40;;;;;;8332485;28;20109;-73
2023/07/08 09:43:44;;;;;;;0.77;0.40;;;22.50;58.90;;;;;;8314649;28;20037;-73
2023/07/08 09:47:45;;;;;;;0.40;0.40;;;22.40;58.90;;;;;;8314723;28;20036;-73
2023/07/08 09:51:48;;;;;;;0.47;0.47;;;22.40;58.90;;;;;;8332058;28;20365;-73
2023/07/08 09:55:51;;;;;;;0.45;0.40;;;22.40;59.40;;;;;;8314183;28;20039;-73
2023/07/08 10:00:13;;;;;;;0.45;0.38;;;22.40;58.90;;;;;;8331844;28;20034;-73
2023/07/08 10:04:14;;;;;;;0.55;0.45;;;22.40;59.40;;;;;;8331843;28;20030;-73
2023/07/08 10:08:22;;;;;;;0.40;0.40;;;22.40;58.90;;;;;;8331984;28;20128;-73
2023/07/08 10:12:24;;;;;;;0.40;0.40;;;22.50;59.00;;;;;;8332401;28;20036;-73
2023/07/08 10:16:32;;;;;;;0.52;0.40;;;22.50;59.00;;;;;;8331058;28;20053;-73
2023/07/08 10:21:01;;;;;;;0.63;0.50;;;22.50;59.00;;;;;;8331555;28;20022;-73
2023/07/08 10:25:34;;;;;;;0.73;0.40;;;22.50;59.00;;;;;;8285384;28;20038;-73
2023/07/08 10:30:05;;;;;;;0.65;0.47;;;22.40;59.00;;;;;;8330593;28;20034;-73
2023/07/08 10:34:24;;;;;;;0.47;0.47;;;22.40;59.00;;;;;;8326816;28;20091;-73
2023/07/08 10:38:45;;;;;;;0.32;0.30;;;22.40;59.00;;;;;;8330226;28;20044;-73
2023/07/08 10:43:12;;;;;;;0.68;0.57;;;22.40;59.00;;;;;;8330506;28;20034;-72
2023/07/08 10:47:33;;;;;;;0.90;0.50;;;22.50;59.00;;;;;;8312691;28;20036;-73
2023/07/08 10:51:51;;;;;;;0.50;0.40;;;22.40;59.00;;;;;;8330343;28;20021;-73
2023/07/08 10:55:58;;;;;;;0.40;0.30;;;22.50;59.00;;;;;;8330162;28;20033;-73
2023/07/08 11:00:31;;;;;;;0.60;0.40;;;22.40;59.00;;;;;;8329926;28;20095;-73
2023/07/08 11:04:40;;;;;;;0.55;0.43;;;22.40;59.00;;;;;;8312102;28;20118;-73
2023/07/08 11:09:00;;;;;;;0.43;0.40;;;22.40;59.00;;;;;;8314582;28;20037;-73
2023/07/08 11:13:06;;;;;;;0.50;0.50;;;22.40;59.00;;;;;;8328647;28;20064;-73
2023/07/08 11:17:46;;;;;;;2.17;0.70;;;22.40;59.00;;;;;;8293006;28;20037;-73
2023/07/08 11:21:53;;;;;;;0.70;0.43;;;22.50;59.10;;;;;;8276808;28;20072;-73
2023/07/08 11:26:21;;;;;;;1.90;0.80;;;22.50;59.20;;;;;;8302623;28;20048;-73
2023/07/08 11:30:26;;;;;;;0.68;0.60;;;22.50;59.80;;;;;;8319660;28;20541;-73
2023/07/08 11:34:28;;;;;;;3.35;0.65;;;22.50;59.20;;;;;;8328166;28;20494;-73
2023/07/08 11:38:31;;;;;;;3.15;0.70;;;22.50;59.20;;;;;;8310459;28;20397;-73
2023/07/08 11:42:43;;;;;;;3.28;0.60;;;22.50;59.30;;;;;;8329103;28;20053;-73
2023/07/08 11:46:55;;;;;;;1.00;0.60;;;22.50;59.30;;;;;;8328346;28;20467;-73
2023/07/08 11:50:57;;;;;;;1.13;0.73;;;22.50;59.30;;;;;;8328308;28;20057;-73
2023/07/08 11:55:24;;;;;;;0.65;0.65;;;22.50;59.30;;;;;;8328209;28;20065;-72
2023/07/08 11:59:31;;;;;;;0.98;0.60;;;22.50;59.30;;;;;;8325368;28;20043;-72
2023/07/08 12:03:39;;;;;;;1.38;0.60;;;22.50;59.30;;;;;;8324114;28;20045;-73
2023/07/08 12:07:57;;;;;;;0.85;0.70;;;22.50;59.80;;;;;;8325637;28;20446;-73
2023/07/08 12:12:01;;;;;;;0.60;0.60;;;22.50;59.30;;;;;;8328129;28;20029;-72
2023/07/08 12:16:02;;;;;;;1.05;0.60;;;22.50;59.30;;;;;;8293823;28;20049;-73
2023/07/08 12:20:15;;;;;;;1.08;0.70;;;22.50;59.50;;;;;;8277540;28;20049;-73
2023/07/08 12:24:17;;;;;;;1.48;0.60;;;22.50;60.50;;;;;;8295053;28;20084;-73
2023/07/08 12:28:19;;;;;;;0.90;0.70;;;22.50;59.90;;;;;;8294908;28;20026;-73
2023/07/08 12:32:22;;;;;;;0.98;0.70;;;22.50;59.70;;;;;;8277358;28;20037;-73
2023/07/08 12:36:27;;;;;;;1.38;0.60;;;22.50;59.90;;;;;;8305720;28;20026;-73
2023/07/08 12:40:29;;;;;;;0.93;0.70;;;22.50;61.10;;;;;;8329176;28;20026;-72
2023/07/08 12:44:30;;;;;;;0.90;0.70;;;22.50;61.30;;;;;;8333461;28;20033;-73
2023/07/08 12:48:34;;;;;;;1.67;0.60;;;22.60;61.10;;;;;;8333330;28;20552;-70
2023/07/08 12:52:35;;;;;;;1.08;0.80;;;22.60;60.80;;;;;;8333139;28;20104;-74
2023/07/08 12:56:37;;;;;;;0.80;0.70;;;22.60;60.40;;;;;;8333330;28;20087;-73
2023/07/08 13:00:40;;;;;;;0.80;0.60;;;22.60;60.50;;;;;;8331925;28;20072;-73
2023/07/08 13:04:41;;;;;;;2.40;0.70;;;22.60;60.00;;;;;;8332779;28;20056;-74
2023/07/08 13:08:42;;;;;;;;;;;22.60;60.40;;;;;;8301531;28;20073;-74
2023/07/08 13:12:44;;;;;;;1.48;0.60;;;22.60;60.20;;;;;;8282351;28;19905;-74
2023/07/08 13:16:45;;;;;;;1.15;0.70;;;22.60;60.20;;;;;;8331701;28;20580;-73
2023/07/08 13:20:54;;;;;;;1.00;0.60;;;22.60;60.00;;;;;;8314502;28;20042;-71
2023/07/08 13:25:02;;;;;;;1.42;0.88;;;22.60;60.00;;;;;;8313042;28;20069;-73
2023/07/08 13:29:15;;;;;;;0.82;0.68;;;22.60;60.00;;;;;;8330408;28;20083;-73
2023/07/08 13:33:17;;;;;;;0.60;0.52;;;22.60;59.90;;;;;;8332073;28;20029;-73
2023/07/08 13:37:21;;;;;;;1.30;0.85;;;22.60;59.90;;;;;;8281740;28;20049;-73
2023/07/08 13:41:23;;;;;;;2.45;0.70;;;22.60;59.90;;;;;;8298344;28;20041;-73
2023/07/08 13:45:27;;;;;;;0.60;0.60;;;22.60;59.90;;;;;;8265512;28;20464;-73
2023/07/08 13:49:29;;;;;;;1.88;0.68;;;22.70;59.90;;;;;;8304008;28;20072;-73
2023/07/08 13:53:38;;;;;;;1.48;0.80;;;22.70;59.80;;;;;;8298042;28;20021;-73
2023/07/08 13:57:39;;;;;;;1.10;0.88;;;22.70;59.80;;;;;;8298515;28;20026;-74
2023/07/08 14:01:42;;;;;;;0.82;0.60;;;22.70;59.80;;;;;;8298424;28;20091;-73
2023/07/08 14:05:44;;;;;;;0.85;0.70;;;22.70;59.80;;;;;;8286766;28;20073;-73
2023/07/08 14:09:45;;;;;;;1.80;0.70;;;22.70;59.80;;;;;;8318627;28;20087;-73
2023/07/08 14:13:46;;;;;;;1.08;0.60;;;22.70;59.70;;;;;;8294299;28;20090;-73
2023/07/08 14:17:47;;;;;;;;;;;22.60;59.70;;;;;;8280388;28;20091;-73
2023/07/08 14:21:56;;;;;;;0.77;0.55;;;22.70;59.70;;;;;;8280148;28;20006;-73
2023/07/08 14:25:57;;;;;;;1.45;0.80;;;22.70;59.70;;;;;;8297589;28;20037;-73
2023/07/08 14:29:58;;;;;;;1.10;0.60;;;22.70;60.30;;;;;;8280234;28;20028;-73
2023/07/08 14:34:03;;;;;;;;;;;22.70;59.60;;;;;;8297925;28;20037;-73
2023/07/08 14:38:09;;;;;;;0.90;0.70;;;22.70;59.60;;;;;;8297211;28;19905;-73
2023/07/08 14:42:12;;;;;;;1.75;0.60;;;22.70;59.60;;;;;;8297428;28;20084;-73
2023/07/08 14:46:13;;;;;;;3.50;0.80;;;22.70;59.60;;;;;;8279310;28;20058;-73
2023/07/08 14:50:15;;;;;;;0.60;0.60;;;22.70;59.60;;;;;;8278829;28;20034;-73
2023/07/08 14:54:16;;;;;;;2.30;0.77;;;22.70;59.60;;;;;;8294578;28;20459;-72
2023/07/08 14:58:22;;;;;;;1.25;0.52;;;22.70;59.90;;;;;;8296583;28;20026;-72
2023/07/08 15:02:23;;;;;;;1.13;0.65;;;22.80;59.70;;;;;;8290913;28;20538;-73
2023/07/08 15:06:24;;;;;;;2.83;1.90;;;22.80;59.80;;;;;;8297500;28;20449;-72
2023/07/08 15:10:28;;;;;;;3.05;1.95;;;22.90;60.50;;;;;;8298842;28;20041;-73
2023/07/08 15:14:28;;;;;;;4.18;1.67;;;22.90;61.60;;;;;;8294267;28;20053;-72
2023/07/08 15:18:29;;;;;;;1.75;1.20;;;22.90;61.90;;;;;;8329097;28;20302;-72
2023/07/08 15:22:30;;;;;;;0.93;0.75;;;23.00;61.60;;;;;;8289758;28;20042;-72
2023/07/08 15:26:30;;;;;;;1.02;0.80;;;23.00;60.80;;;;;;8318708;28;20029;-72
2023/07/08 15:30:31;;;;;;;;;;;23.00;60.60;;;;;;8304525;28;20108;-72
2023/07/08 15:34:32;;;;;;;2.70;0.97;;;23.00;60.50;;;;;;8320963;28;20381;-72
2023/07/08 15:38:32;;;;;;;;;;;23.00;60.50;;;;;;8321808;28;20041;-73
2023/07/08 15:42:33;;;;;;;4.53;1.67;;;23.00;60.30;;;;;;8322760;28;19917;-72
2023/07/08 15:46:50;;;;;;;8.35;2.22;;;23.30;57.60;;;;;;8317047;28;20108;-72
2023/07/08 15:50:51;;;;;;;4.78;2.30;;;23.70;55.20;;;;;;8318530;28;20030;-72
2023/07/08 15:54:51;;;;;;;6.07;3.08;;;24.00;52.90;;;;;;8303244;28;20034;-72
2023/07/08 15:58:52;;;;;;;;;;;24.30;51.20;;;;;;8320188;28;20108;-71
2023/07/08 16:02:55;;;;;;;6.47;2.93;;;24.40;50.90;;;;;;8317155;28;19924;-70
2023/07/08 16:06:56;;;;;;;5.72;3.15;;;24.30;51.80;;;;;;8318940;28;20406;-69
2023/07/08 16:11:00;;;;;;;8.70;3.30;;;24.20;51.50;;;;;;8301658;28;20065;-71
2023/07/08 16:15:01;;;;;;;9.52;3.60;;;24.00;52.00;;;;;;8320037;28;20060;-70
2023/07/08 16:19:01;;;;;;;5.70;3.17;;;23.80;54.00;;;;;;8320826;28;20075;-70
2023/07/08 16:23:02;;;;;;;;;;;23.70;54.90;;;;;;8301634;28;20042;-69
2023/07/08 16:27:03;;;;;;;5.30;3.23;;;23.60;54.80;;;;;;8317272;28;20006;-70
2023/07/08 16:31:06;;;;;;;6.05;2.95;;;23.60;55.10;;;;;;8316685;28;20026;-69
2023/07/08 16:35:12;;;;;;;5.75;3.17;;;23.50;55.20;;;;;;8302602;28;20072;-68
2023/07/08 16:39:13;;;;;;;7.45;3.53;;;23.50;54.70;;;;;;8319756;28;20561;-69
2023/07/08 16:43:23;;;;;;;5.60;3.42;;;23.60;55.50;;;;;;8320572;28;20665;-69
2023/07/08 16:47:24;;;;;;;6.97;3.28;;;23.50;55.10;;;;;;8320119;28;20534;-69
2023/07/08 16:51:28;;;;;;;7.13;3.42;;;23.50;55.50;;;;;;8301213;28;20582;-69
2023/07/08 16:55:29;;;;;;;6.03;3.42;;;23.50;55.50;;;;;;8316391;28;20025;-69
2023/07/08 16:59:30;;;;;;;7.82;3.55;;;23.50;55.20;;;;;;8318320;28;20040;-70
2023/07/08 17:03:32;;;;;;;;;;;23.40;55.40;;;;;;8320455;28;20048;-68
2023/07/08 17:07:33;;;;;;;7.65;4.05;;;23.40;56.00;;;;;;8318796;28;19921;-70
2023/07/08 17:11:33;;;;;;;5.68;4.00;;;23.40;56.50;;;;;;8320056;28;20049;-69
2023/07/08 17:15:34;;;;;;;9.27;3.80;;;23.40;57.00;;;;;;8320292;28;20049;-69
2023/07/08 17:19:34;;;;;;;;;;;23.40;56.20;;;;;;8298411;28;20699;-70
2023/07/08 17:23:35;;;;;;;7.00;3.73;;;23.40;55.10;;;;;;8302394;28;19917;-70
2023/07/08 17:27:36;;;;;;;9.20;4.25;;;23.40;55.70;;;;;;8320909;28;20402;-68
2023/07/08 17:31:38;;;;;;;6.35;3.90;;;23.40;56.50;;;;;;8326702;28;20390;-69
2023/07/08 17:35:39;;;;;;;8.35;3.97;;;23.30;56.10;;;;;;8321424;28;20410;-70
2023/07/08 17:39:39;;;;;;;7.05;4.28;;;23.30;56.60;;;;;;8299181;28;20057;-70
2023/07/08 17:43:40;;;;;;;;;;;23.30;56.80;;;;;;8301091;28;20062;-71
2023/07/08 17:47:41;;;;;;;7.47;3.67;;;23.30;57.00;;;;;;8300882;28;19964;-71
2023/07/08 17:51:42;;;;;;;;;;;23.40;56.60;;;;;;8333611;28;20083;-71
2023/07/08 17:55:43;;;;;;;8.03;3.93;;;23.40;57.20;;;;;;8331877;28;19917;-70
2023/07/08 17:59:43;;;;;;;;;;;23.40;56.80;;;;;;8333399;28;20037;-70
2023/07/08 18:03:46;;;;;;;7.33;3.93;;;23.30;56.90;;;;;;8333040;28;20007;-70
2023/07/08 18:07:48;;;;;;;9.35;3.45;;;23.40;57.30;;;;;;8333011;28;20128;-70
2023/07/08 18:11:48;;;;;;;6.32;3.80;;;23.40;57.00;;;;;;8332775;28;20060;-70
2023/07/08 18:15:49;;;;;;;9.77;3.90;;;23.40;56.80;;;;;;8314889;28;20065;-70
2023/07/08 18:19:50;;;;;;;9.00;5.45;;;23.40;57.40;;;;;;8332457;28;20038;-70
2023/07/08 18:23:54;;;;;;;10.70;6.47;;;23.40;56.90;;;;;;8332133;28;20394;-70
2023/07/08 18:27:56;;;;;;;16.05;7.90;;;23.40;57.10;;;;;;8332272;28;20025;-70
2023/07/08 18:31:58;;;;;;;18.95;10.90;;;23.40;57.30;;;;;;8312234;28;20040;-71
2023/07/08 18:35:58;;;;;;;31.73;18.10;;;23.30;57.10;;;;;;8331569;28;20100;-70
2023/07/08 18:39:59;;;;;;;33.72;18.98;;;23.30;57.30;;;;;;8331579;28;20038;-70
2023/07/08 18:44:01;;;;;;;;;;;23.30;57.50;;;;;;8332299;28;20044;-70
2023/07/08 18:48:02;;;;;;;22.17;13.00;;;23.30;57.80;;;;;;8331343;28;20383;-70
2023/07/08 18:52:04;;;;;;;22.17;13.02;;;23.30;58.30;;;;;;8330249;28;20632;-70
2023/07/08 18:56:05;;;;;;;23.38;11.32;;;23.30;58.50;;;;;;8329928;28;20041;-71
2023/07/08 19:00:10;;;;;;;18.20;10.80;;;23.30;58.40;;;;;;8331305;28;20037;-70
2023/07/08 19:04:25;;;;;;;15.63;9.25;;;23.40;58.00;;;;;;8331680;28;20045;-70
2023/07/08 19:08:27;;;;;;;12.57;8.48;;;23.40;57.70;;;;;;8330390;28;20029;-71
2023/07/08 19:12:27;;;;;;;12.43;8.18;;;23.50;57.70;;;;;;8313358;28;20034;-69
2023/07/08 19:16:29;;;;;;;13.75;8.20;;;23.40;57.70;;;;;;8330479;28;20053;-70
2023/07/08 19:20:36;;;;;;;11.85;7.10;;;23.40;57.60;;;;;;8312538;28;20069;-70
2023/07/08 19:24:36;;;;;;;12.30;7.60;;;23.40;57.50;;;;;;8312737;28;20048;-70
2023/07/08 19:28:37;;;;;;;12.55;6.30;;;23.40;57.40;;;;;;8330172;28;20029;-70
2023/07/08 19:32:42;;;;;;;10.85;5.90;;;23.40;57.30;;;;;;8330071;28;20040;-70
2023/07/08 19:36:42;;;;;;;11.63;6.03;;;23.40;57.20;;;;;;8328634;28;20087;-69
2023/07/08 19:40:51;;;;;;;12.18;6.25;;;23.40;57.10;;;;;;8312326;28;20033;-70
2023/07/08 19:44:51;;;;;;;9.85;5.75;;;23.40;57.40;;;;;;8329986;28;20042;-70
2023/07/08 19:48:52;;;;;;;9.13;6.05;;;23.30;57.60;;;;;;8329601;28;20065;-71
2023/07/08 19:52:53;;;;;;;8.85;5.07;;;23.30;57.70;;;;;;8311622;28;20021;-70
2023/07/08 19:56:53;;;;;;;;;;;23.30;57.80;;;;;;8329887;28;20041;-70
2023/07/08 20:00:54;;;;;;;9.47;5.30;;;23.30;57.70;;;;;;8311903;28;19909;-70
2023/07/08 20:04:55;;;;;;;;;;;23.30;57.90;;;;;;8329899;28;20037;-70
2023/07/08 20:08:57;;;;;;;10.93;5.33;;;23.30;58.10;;;;;;8328484;28;19909;-70
2023/07/08 20:12:58;;;;;;;8.73;5.15;;;23.20;58.30;;;;;;8311898;28;20030;-69
2023/07/08 20:16:58;;;;;;;9.93;5.22;;;23.20;58.60;;;;;;8329414;28;20052;-70
2023/07/08 20:21:00;;;;;;;9.13;5.50;;;23.20;58.50;;;;;;8311552;28;20551;-70
2023/07/08 20:25:00;;;;;;;13.73;5.50;;;23.20;58.70;;;;;;8329250;28;20065;-69
2023/07/08 20:29:02;;;;;;;11.85;6.47;;;23.20;58.80;;;;;;8327828;28;20211;-69
2023/07/08 20:33:02;;;;;;;8.27;5.30;;;23.30;59.00;;;;;;8328262;28;20025;-70
2023/07/08 20:37:03;;;;;;;7.00;4.90;;;23.30;59.10;;;;;;8328521;28;20044;-69
2023/07/08 20:41:04;;;;;;;;;;;23.30;59.10;;;;;;8311874;28;20453;-69
2023/07/08 20:45:05;;;;;;;12.00;5.20;;;23.30;59.40;;;;;;8328890;28;19916;-70
2023/07/08 20:49:09;;;;;;;9.30;5.55;;;23.30;59.40;;;;;;8327649;28;20040;-69
2023/07/08 20:53:13;;;;;;;12.05;5.82;;;23.30;59.40;;;;;;8328228;28;20036;-70
2023/07/08 20:57:15;;;;;;;13.10;5.10;;;23.30;59.30;;;;;;8328744;28;20040;-69
2023/07/08 21:01:15;;;;;;;10.95;5.45;;;23.30;59.30;;;;;;8329788;28;20043;-69
2023/07/08 21:05:16;;;;;;;8.52;4.47;;;23.30;59.30;;;;;;8334464;28;20037;-70
2023/07/08 21:09:19;;;;;;;11.98;5.43;;;23.30;59.40;;;;;;8334610;28;20030;-70
2023/07/08 21:13:20;;;;;;;10.40;4.80;;;23.30;59.30;;;;;;8334739;28;20073;-71
2023/07/08 21:17:28;;;;;;;12.82;4.97;;;23.30;59.30;;;;;;8333768;28;20041;-70